UTC weather

CLOSED Soesterberg Air Base
Soesterberg, Utrecht, Netherlands

Public forecast

Using degrees Celsius for public forecast. Weather courtesy of forecast.io.

METAR (pilot weather report)

Closest report is Amsterdam Airport Schiphol, 21.8 nm (40.3 km) WNW. Retrieved 2018/09/26 09:55 UTC (21 minutes ago):

EHAM 260955Z 22012KT 190V250 9999 FEW024 16/11 Q1032 NOSIG

TAF (pilot weather forecast)

Closest forecast is Amsterdam Airport Schiphol, 21.8 nm (40.3 km) WNW. Retrieved 2018/09/26 06:38 UTC (4 hours ago):

TAF EHAM 260453Z 2606/2712 19006KT 9999 FEW040 BECMG 2607/2610 24014KT BECMG 2616/2619 20005KT CAVOK PROB30 TEMPO 2703/2707 4500 BR BECMG 2709/2712 23012KT